Time;durP1;ratioP1;P1;durP2;ratioP2;P2;SDS_P1;SDS_P2;PMS_P1;PMS_P2;Temp;Humidity;BMP_temperature;BMP_pressure;BME280_temperature;BME280_humidity;BME280_pressure;Samples;Min_cycle;Max_cycle;Signal;HPM_P1;HPM_P2
2023/07/11 00:00:14;;;;;;;;;;;;;;;39.19;30.40;101498.63;5074767;28;19920;-52
2023/07/11 00:02:40;;;;;;;;;;;;;;;38.96;30.76;101493.91;5087626;28;19963;-53
2023/07/11 00:05:07;;;;;;;;;;;;;;;40.56;30.04;101495.78;5074762;28;19917;-49
2023/07/11 00:07:32;;;;;;;;;;;;;;;41.82;27.66;101504.16;5076605;28;19938;-49
2023/07/11 00:09:58;;;;;;;;;;;;;;;42.33;26.91;101504.22;5074816;28;20326;-48
2023/07/11 00:12:28;;;;;;;;;;;;;;;39.88;29.72;101493.13;5084438;28;19917;-50
2023/07/11 00:14:55;;;;;;;;;;;;;;;39.41;30.19;101488.56;5074771;28;19980;-49
2023/07/11 00:17:20;;;;;;;;;;;;;;;39.15;30.73;101489.38;5076275;28;19917;-53
2023/07/11 00:19:48;;;;;;;;;;;;;;;39.21;30.55;101478.69;5078888;28;19943;-51
2023/07/11 00:22:14;;;;;;;;;;;;;;;39.01;31.05;101484.41;5084807;28;19916;-50
2023/07/11 00:24:39;;;;;;;;;;;;;;;39.60;30.24;101478.41;5089262;28;19955;-54
2023/07/11 00:27:04;;;;;;;;;;;;;;;39.80;30.52;101484.63;5087213;28;19920;-50
2023/07/11 00:29:30;;;;;;;;;;;;;;;40.43;29.48;101490.50;5078649;28;19944;-50
2023/07/11 00:31:56;;;;;;;;;;;;;;;39.80;30.09;101493.03;5078557;28;19917;-53
2023/07/11 00:34:22;;;;;;;;;;;;;;;40.13;30.24;101482.97;5086172;28;19940;-52
2023/07/11 00:36:47;;;;;;;;;;;;;;;39.98;30.22;101489.66;5080861;28;19924;-49
2023/07/11 00:39:15;;;;;;;;;;;;;;;39.19;31.19;101493.03;5078263;28;19923;-50
2023/07/11 00:41:41;;;;;;;;;;;;;;;38.41;32.08;101489.41;5078279;28;19917;-53
2023/07/11 00:44:12;;;;;;;;;;;;;;;38.19;32.29;101490.22;5083700;28;19991;-52
2023/07/11 00:46:39;;;;;;;;;;;;;;;40.73;29.85;101491.56;5063246;28;19972;-54
2023/07/11 00:49:06;;;;;;;;;;;;;;;38.67;32.01;101484.28;5065420;28;19917;-53
2023/07/11 00:51:33;;;;;;;;;;;;;;;38.00;33.27;101487.09;5093158;28;19921;-52
2023/07/11 00:54:00;;;;;;;;;;;;;;;37.90;33.79;101484.88;5078079;28;20103;-52
2023/07/11 00:56:29;;;;;;;;;;;;;;;39.52;31.91;101483.13;5065028;28;19956;-53
2023/07/11 00:58:55;;;;;;;;;;;;;;;38.14;33.71;101483.75;5085465;28;19984;-53
2023/07/11 01:01:23;;;;;;;;;;;;;;;40.21;31.03;101483.84;5076416;28;19924;-53
2023/07/11 01:03:50;;;;;;;;;;;;;;;41.39;29.68;101489.94;5093870;28;19920;-53
2023/07/11 01:06:17;;;;;;;;;;;;;;;41.38;29.32;101482.72;5080616;28;19924;-55
2023/07/11 01:08:44;;;;;;;;;;;;;;;41.13;29.35;101480.56;5067235;28;19955;-55
2023/07/11 01:11:10;;;;;;;;;;;;;;;41.18;29.42;101483.03;5064481;28;19921;-52
2023/07/11 01:13:35;;;;;;;;;;;;;;;41.13;29.75;101481.38;5083360;28;20009;-54
2023/07/11 01:16:02;;;;;;;;;;;;;;;40.35;30.42;101483.22;5077875;28;19956;-56
2023/07/11 01:18:28;;;;;;;;;;;;;;;40.36;31.09;101479.22;5093503;28;19943;-54
2023/07/11 01:20:54;;;;;;;;;;;;;;;40.08;31.27;101469.34;5077587;28;19985;-51
2023/07/11 01:23:22;;;;;;;;;;;;;;;39.62;31.55;101470.44;5077654;28;20011;-55
2023/07/11 01:25:48;;;;;;;;;;;;;;;39.61;31.74;101473.63;5077740;28;19917;-50
2023/07/11 01:28:13;;;;;;;;;;;;;;;39.34;32.58;101459.69;5092738;28;19917;-55
2023/07/11 01:30:39;;;;;;;;;;;;;;;39.93;31.87;101464.81;5077554;28;19988;-53
2023/07/11 01:33:04;;;;;;;;;;;;;;;39.64;31.93;101458.84;5077706;28;19917;-51
2023/07/11 01:35:30;;;;;;;;;;;;;;;39.64;32.13;101456.06;5085283;28;19917;-50
2023/07/11 01:37:55;;;;;;;;;;;;;;;40.07;31.48;101456.53;5079405;28;19924;-50
2023/07/11 01:40:21;;;;;;;;;;;;;;;40.25;31.04;101451.06;5077067;28;19925;-52
2023/07/11 01:42:48;;;;;;;;;;;;;;;40.36;31.31;101450.41;5087764;28;19934;-50
2023/07/11 01:45:14;;;;;;;;;;;;;;;39.76;31.82;101444.59;5073923;28;19980;-52
2023/07/11 01:47:39;;;;;;;;;;;;;;;39.56;31.95;101433.59;5077144;28;19924;-56
2023/07/11 01:50:05;;;;;;;;;;;;;;;39.14;32.49;101427.09;5077137;28;19923;-52
2023/07/11 01:52:30;;;;;;;;;;;;;;;39.18;32.73;101429.13;5068018;28;19947;-52
2023/07/11 01:54:57;;;;;;;;;;;;;;;39.25;32.57;101418.84;5068267;28;19974;-52
2023/07/11 01:57:23;;;;;;;;;;;;;;;39.01;33.18;101415.34;5076782;28;19948;-53
2023/07/11 01:59:49;;;;;;;;;;;;;;;39.07;33.91;101412.19;5059219;28;19931;-53
2023/07/11 02:02:15;;;;;;;;;;;;;;;38.90;35.28;101408.75;5076802;28;19916;-51
2023/07/11 02:04:40;;;;;;;;;;;;;;;39.26;34.69;101409.25;5083576;28;19923;-54
2023/07/11 02:07:06;;;;;;;;;;;;;;;39.36;35.04;101404.16;5072568;28;19927;-52
2023/07/11 02:09:31;;;;;;;;;;;;;;;37.33;39.23;101396.06;5076719;28;19932;-55
2023/07/11 02:11:57;;;;;;;;;;;;;;;38.80;36.64;101392.66;5094820;28;19984;-50
2023/07/11 02:14:23;;;;;;;;;;;;;;;38.73;36.67;101391.34;5076503;28;19924;-49
2023/07/11 02:16:49;;;;;;;;;;;;;;;38.73;36.86;101391.34;5076663;28;19924;-50
2023/07/11 02:19:16;;;;;;;;;;;;;;;38.69;36.74;101387.69;5076318;28;19917;-49
2023/07/11 02:21:42;;;;;;;;;;;;;;;38.71;36.62;101381.75;5076596;28;19928;-50
2023/07/11 02:24:08;;;;;;;;;;;;;;;38.80;35.98;101375.88;5076452;28;19921;-52
2023/07/11 02:26:34;;;;;;;;;;;;;;;38.16;37.52;101375.31;5076305;28;19963;-51
2023/07/11 02:29:01;;;;;;;;;;;;;;;38.81;36.36;101377.50;5076403;28;19916;-51
2023/07/11 02:31:26;;;;;;;;;;;;;;;38.55;35.69;101373.53;5076353;28;19948;-52
2023/07/11 02:33:51;;;;;;;;;;;;;;;38.94;35.23;101364.91;5086945;28;19920;-50
2023/07/11 02:36:17;;;;;;;;;;;;;;;38.54;34.86;101366.34;5080709;28;19939;-51
2023/07/11 02:38:43;;;;;;;;;;;;;;;38.61;34.80;101362.81;5076187;28;19924;-50
2023/07/11 02:41:09;;;;;;;;;;;;;;;38.11;35.56;101363.66;5075262;28;19952;-49
2023/07/11 02:43:34;;;;;;;;;;;;;;;36.41;38.12;101356.19;5076174;28;19928;-48
2023/07/11 02:46:00;;;;;;;;;;;;;;;37.53;36.80;101357.84;5075982;28;19917;-48
2023/07/11 02:48:26;;;;;;;;;;;;;;;37.52;36.30;101355.44;5075800;28;19917;-49
2023/07/11 02:50:52;;;;;;;;;;;;;;;37.20;37.26;101348.00;5075758;28;19917;-49
2023/07/11 02:53:18;;;;;;;;;;;;;;;37.88;36.20;101342.91;5080473;28;19928;-48
2023/07/11 02:55:43;;;;;;;;;;;;;;;37.10;36.32;101335.47;5075874;28;19917;-49
2023/07/11 02:58:09;;;;;;;;;;;;;;;36.83;36.88;101335.28;5075840;28;19920;-50
2023/07/11 03:00:35;;;;;;;;;;;;;;;36.84;37.29;101336.91;5075714;28;19963;-49
2023/07/11 03:03:01;;;;;;;;;;;;;;;36.77;37.38;101333.16;5075695;28;19920;-52
2023/07/11 03:05:26;;;;;;;;;;;;;;;36.50;37.64;101328.16;5075559;28;19917;-48
2023/07/11 03:07:52;;;;;;;;;;;;;;;36.72;37.13;101321.13;5075640;28;19917;-48
2023/07/11 03:10:18;;;;;;;;;;;;;;;36.20;37.52;101317.53;5075409;28;19917;-51
2023/07/11 03:12:43;;;;;;;;;;;;;;;35.95;37.85;101308.53;5075424;28;19947;-51
2023/07/11 03:15:09;;;;;;;;;;;;;;;35.90;38.10;101306.84;5075409;28;19921;-53
2023/07/11 03:17:34;;;;;;;;;;;;;;;36.39;37.49;101308.41;5075462;28;19923;-50
2023/07/11 03:20:00;;;;;;;;;;;;;;;36.48;37.51;101304.63;5058007;28;19916;-51
2023/07/11 03:22:26;;;;;;;;;;;;;;;36.72;36.62;101309.97;5078921;28;19942;-53
2023/07/11 03:24:51;;;;;;;;;;;;;;;36.96;36.27;101296.13;5082632;28;19924;-48
2023/07/11 03:27:17;;;;;;;;;;;;;;;36.35;37.27;101307.53;5090963;28;19917;-53
2023/07/11 03:29:42;;;;;;;;;;;;;;;36.51;36.83;101298.34;5075253;28;19955;-53
2023/07/11 03:32:09;;;;;;;;;;;;;;;34.92;40.70;101289.44;5074952;28;19960;-52
2023/07/11 03:34:34;;;;;;;;;;;;;;;33.66;43.58;101287.03;5064657;28;19944;-49
2023/07/11 03:37:00;;;;;;;;;;;;;;;34.42;42.09;101289.53;5077280;28;19940;-50
2023/07/11 03:39:25;;;;;;;;;;;;;;;33.64;43.93;101283.81;5082620;28;19923;-51
2023/07/11 03:41:51;;;;;;;;;;;;;;;33.97;43.72;101280.19;5075117;28;19924;-49
2023/07/11 03:44:16;;;;;;;;;;;;;;;34.53;42.34;101287.94;5077790;28;19916;-49
2023/07/11 03:46:42;;;;;;;;;;;;;;;34.93;41.23;101289.09;5057633;28;19921;-52
2023/07/11 03:49:09;;;;;;;;;;;;;;;34.68;41.61;101293.91;5087410;28;19917;-50
2023/07/11 03:51:35;;;;;;;;;;;;;;;34.74;41.45;101282.22;5075853;28;19913;-51
2023/07/11 03:54:01;;;;;;;;;;;;;;;35.18;40.50;101291.81;5075250;28;19960;-49
2023/07/11 03:56:27;;;;;;;;;;;;;;;34.99;40.89;101287.69;5084971;28;19924;-49
2023/07/11 03:58:52;;;;;;;;;;;;;;;34.74;41.09;101284.97;5075102;28;19948;-51
2023/07/11 04:01:18;;;;;;;;;;;;;;;34.99;41.45;101286.88;5074534;28;19948;-51
2023/07/11 04:03:43;;;;;;;;;;;;;;;35.57;39.80;101292.09;5084968;28;19980;-52
2023/07/11 04:06:09;;;;;;;;;;;;;;;35.68;39.36;101280.44;5082776;28;19956;-49
2023/07/11 04:08:34;;;;;;;;;;;;;;;35.84;39.03;101284.03;5074681;28;19917;-50
2023/07/11 04:11:00;;;;;;;;;;;;;;;35.84;38.45;101272.91;5074630;28;19928;-50
2023/07/11 04:13:26;;;;;;;;;;;;;;;35.91;38.96;101283.41;5074870;28;19925;-50
2023/07/11 04:15:51;;;;;;;;;;;;;;;36.30;37.83;101280.78;5074693;28;19917;-51
2023/07/11 04:18:17;;;;;;;;;;;;;;;40.14;33.94;101287.78;5086563;28;19921;-49
2023/07/11 04:20:43;;;;;;;;;;;;;;;36.55;36.83;101285.31;5075912;28;19944;-54
2023/07/11 04:23:08;;;;;;;;;;;;;;;35.55;38.82;101274.16;5079092;28;19978;-50
2023/07/11 04:25:33;;;;;;;;;;;;;;;36.92;36.95;101278.53;5075819;28;19916;-53
2023/07/11 04:27:59;;;;;;;;;;;;;;;35.40;39.27;101264.59;5074775;28;19992;-50
2023/07/11 04:30:25;;;;;;;;;;;;;;;34.83;40.83;101270.13;5074729;28;19942;-52
2023/07/11 04:32:51;;;;;;;;;;;;;;;35.77;38.98;101258.84;5057961;28;19924;-51
2023/07/11 04:35:17;;;;;;;;;;;;;;;36.00;38.21;101264.53;5080417;28;19916;-50
2023/07/11 04:37:43;;;;;;;;;;;;;;;35.70;38.42;101261.41;5082372;28;19939;-53
2023/07/11 04:40:09;;;;;;;;;;;;;;;35.26;39.61;101251.13;5074281;28;19944;-50
2023/07/11 04:42:35;;;;;;;;;;;;;;;34.86;41.46;101244.47;5073811;28;19980;-49
2023/07/11 04:45:00;;;;;;;;;;;;;;;34.78;41.82;101239.84;5074237;28;19924;-50
2023/07/11 04:47:27;;;;;;;;;;;;;;;34.93;41.08;101239.09;5081401;28;19925;-51
2023/07/11 04:49:53;;;;;;;;;;;;;;;34.24;42.73;101230.69;5075705;28;19916;-51
2023/07/11 04:52:18;;;;;;;;;;;;;;;35.45;40.47;101239.31;5058304;28;20188;-49
2023/07/11 04:54:44;;;;;;;;;;;;;;;35.28;40.63;101240.47;5073047;28;19945;-52
2023/07/11 04:57:10;;;;;;;;;;;;;;;34.83;41.64;101228.47;5075724;28;19927;-49
2023/07/11 04:59:35;;;;;;;;;;;;;;;34.42;42.51;101225.69;5074197;28;19917;-54
2023/07/11 05:02:00;;;;;;;;;;;;;;;36.73;38.43;101230.81;5070103;28;20007;-53
2023/07/11 05:04:26;;;;;;;;;;;;;;;34.05;43.94;101226.56;5070532;28;20355;-51
2023/07/11 05:06:52;;;;;;;;;;;;;;;33.96;44.30;101220.31;5076701;28;19917;-54
2023/07/11 05:09:17;;;;;;;;;;;;;;;33.50;45.71;101218.41;5087878;28;19917;-53
2023/07/11 05:11:42;;;;;;;;;;;;;;;36.25;39.12;101224.59;5076329;28;19932;-52
2023/07/11 05:14:08;;;;;;;;;;;;;;;34.45;42.40;101219.44;5076344;28;19916;-50
2023/07/11 05:16:33;;;;;;;;;;;;;;;34.29;43.19;101220.19;5077316;28;19916;-55
2023/07/11 05:18:58;;;;;;;;;;;;;;;34.29;43.79;101208.25;5077101;28;19917;-53
2023/07/11 05:21:24;;;;;;;;;;;;;;;34.75;41.71;101216.38;5067380;28;19944;-49
2023/07/11 05:23:50;;;;;;;;;;;;;;;34.83;42.06;101209.03;5069858;28;19952;-53
2023/07/11 05:26:16;;;;;;;;;;;;;;;36.50;39.90;101218.75;5082235;28;19959;-50
2023/07/11 05:28:41;;;;;;;;;;;;;;;37.75;35.96;101224.31;5074988;28;19917;-51
2023/07/11 05:31:07;;;;;;;;;;;;;;;36.81;37.97;101220.63;5072559;28;19924;-49
2023/07/11 05:33:33;;;;;;;;;;;;;;;37.05;37.74;101215.09;5082721;28;19925;-49
2023/07/11 05:36:13;;;;;;;;;;;;;;;35.36;40.15;101213.66;5080473;28;20431;-49
2023/07/11 05:38:39;;;;;;;;;;;;;;;35.74;39.92;101207.50;5075890;28;19943;-54
2023/07/11 05:41:04;;;;;;;;;;;;;;;35.03;41.52;101204.47;5076958;28;19921;-50
2023/07/11 05:43:30;;;;;;;;;;;;;;;37.65;36.31;101208.22;5075125;28;19955;-49
2023/07/11 05:45:55;;;;;;;;;;;;;;;38.95;34.60;101215.56;5085823;28;20073;-49
2023/07/11 05:48:21;;;;;;;;;;;;;;;39.72;33.56;101211.50;5080086;28;19921;-50
2023/07/11 05:50:56;;;;;;;;;;;;;;;40.36;33.47;101209.50;5076270;28;19999;-49
2023/07/11 05:53:21;;;;;;;;;;;;;;;38.58;34.00;101210.75;5071776;28;19967;-48
2023/07/11 05:55:47;;;;;;;;;;;;;;;38.66;34.65;101209.63;5080162;28;19916;-52
2023/07/11 05:58:13;;;;;;;;;;;;;;;38.41;33.98;101210.13;5076287;28;19924;-52
2023/07/11 06:00:39;;;;;;;;;;;;;;;39.14;33.05;101206.19;5076455;28;19959;-56
2023/07/11 06:03:04;;;;;;;;;;;;;;;37.45;35.01;101194.31;5076299;28;19928;-54
2023/07/11 06:05:30;;;;;;;;;;;;;;;38.89;33.35;101200.31;5078269;28;19916;-52
2023/07/11 06:07:55;;;;;;;;;;;;;;;35.26;39.23;101192.75;5075487;28;19921;-53
2023/07/11 06:10:21;;;;;;;;;;;;;;;39.07;33.68;101199.72;5076298;28;19921;-50
2023/07/11 06:12:46;;;;;;;;;;;;;;;37.08;36.29;101192.06;5076179;28;19982;-55
2023/07/11 06:15:12;;;;;;;;;;;;;;;34.66;40.38;101180.41;5073182;28;19917;-55
2023/07/11 06:17:37;;;;;;;;;;;;;;;35.21;39.25;101191.03;5085908;28;19976;-52
2023/07/11 06:20:03;;;;;;;;;;;;;;;36.90;37.06;101183.34;5074290;28;19924;-52
2023/07/11 06:22:29;;;;;;;;;;;;;;;36.21;37.56;101190.28;5074141;28;19944;-53
2023/07/11 06:24:54;;;;;;;;;;;;;;;37.87;35.41;101181.44;5074224;28;19912;-52
2023/07/11 06:27:20;;;;;;;;;;;;;;;37.51;35.24;101178.91;5098080;28;19917;-52
2023/07/11 06:29:46;;;;;;;;;;;;;;;36.40;37.56;101178.38;5075627;28;19927;-49
2023/07/11 06:32:12;;;;;;;;;;;;;;;35.80;38.33;101177.44;5075986;28;19917;-49
2023/07/11 06:34:37;;;;;;;;;;;;;;;36.22;37.81;101186.34;5075963;28;19924;-53
2023/07/11 06:37:03;;;;;;;;;;;;;;;36.18;38.20;101180.69;5080745;28;19916;-53
2023/07/11 06:39:28;;;;;;;;;;;;;;;35.60;39.17;101176.56;5086021;28;19917;-53
2023/07/11 06:41:54;;;;;;;;;;;;;;;35.92;39.18;101172.91;5075363;28;19917;-50
2023/07/11 06:44:24;;;;;;;;;;;;;;;35.50;39.30;101177.06;5058010;28;19917;-51
2023/07/11 06:46:50;;;;;;;;;;;;;;;36.23;38.17;101185.19;5077507;28;19976;-50
2023/07/11 06:49:15;;;;;;;;;;;;;;;36.73;37.69;101177.06;5075039;28;19916;-49
2023/07/11 06:51:41;;;;;;;;;;;;;;;36.23;38.24;101180.41;5075128;28;19917;-53
2023/07/11 06:54:06;;;;;;;;;;;;;;;37.38;36.83;101161.53;5075708;28;19917;-53
2023/07/11 06:56:33;;;;;;;;;;;;;;;37.87;35.63;101173.88;5074803;28;19955;-52
2023/07/11 06:58:58;;;;;;;;;;;;;;;37.43;35.89;101175.16;5095270;28;19913;-53
2023/07/11 07:01:24;;;;;;;;;;;;;;;37.29;36.01;101164.56;5074913;28;19971;-50
2023/07/11 07:03:50;;;;;;;;;;;;;;;37.51;34.85;101164.94;5057909;28;19920;-53
2023/07/11 07:06:17;;;;;;;;;;;;;;;37.90;34.67;101163.13;5080258;28;19924;-53
2023/07/11 07:08:42;;;;;;;;;;;;;;;37.65;35.33;101169.16;5075033;28;19942;-55
2023/07/11 07:11:08;;;;;;;;;;;;;;;37.64;34.92;101161.97;5074909;28;19917;-53
2023/07/11 07:13:34;;;;;;;;;;;;;;;37.86;34.67;101158.31;5075509;28;19988;-50
2023/07/11 07:16:01;;;;;;;;;;;;;;;38.79;33.62;101165.47;5074901;28;19932;-55
2023/07/11 07:18:32;;;;;;;;;;;;;;;38.92;33.84;101166.03;5081432;28;19921;-52
2023/07/11 07:20:58;;;;;;;;;;;;;;;38.14;34.84;101161.88;5062155;28;19916;-54
2023/07/11 07:23:25;;;;;;;;;;;;;;;37.91;35.34;101161.97;5074847;28;19954;-50
2023/07/11 07:25:53;;;;;;;;;;;;;;;38.23;33.55;101176.38;5074874;28;19972;-55
2023/07/11 07:28:19;;;;;;;;;;;;;;;37.57;34.41;101155.06;5079545;28;19911;-53
2023/07/11 07:30:45;;;;;;;;;;;;;;;38.46;33.82;101158.75;5085469;28;19916;-54
2023/07/11 07:33:11;;;;;;;;;;;;;;;38.08;33.79;101152.25;5074323;28;19924;-51
2023/07/11 07:35:36;;;;;;;;;;;;;;;38.18;33.63;101156.34;5074743;28;19917;-50
2023/07/11 07:38:03;;;;;;;;;;;;;;;37.90;33.68;101154.78;5076148;28;19927;-49
2023/07/11 07:40:28;;;;;;;;;;;;;;;38.41;33.52;101145.88;5074328;28;19930;-50
2023/07/11 07:42:54;;;;;;;;;;;;;;;38.01;33.49;101150.16;5074566;28;19927;-51
2023/07/11 07:45:19;;;;;;;;;;;;;;;38.48;33.01;101147.16;5075867;28;19920;-52
2023/07/11 07:47:45;;;;;;;;;;;;;;;38.02;33.54;101146.19;5092652;28;19938;-54
2023/07/11 07:50:10;;;;;;;;;;;;;;;38.02;33.90;101146.19;5074156;28;19944;-51
2023/07/11 07:52:36;;;;;;;;;;;;;;;37.92;33.37;101135.66;5074195;28;19925;-54
2023/07/11 07:55:02;;;;;;;;;;;;;;;38.59;33.59;101139.72;5061749;28;19921;-55
2023/07/11 07:57:27;;;;;;;;;;;;;;;37.96;33.57;101125.34;5074236;28;19920;-54
2023/07/11 07:59:52;;;;;;;;;;;;;;;38.42;33.58;101141.91;5077022;28;19920;-53
2023/07/11 08:02:18;;;;;;;;;;;;;;;37.66;33.88;101128.91;5074231;28;19913;-54
2023/07/11 08:04:43;;;;;;;;;;;;;;;38.44;32.85;101139.56;5074358;28;19923;-52
2023/07/11 08:07:09;;;;;;;;;;;;;;;37.83;34.05;101135.94;5081394;28;19959;-54
2023/07/11 08:09:34;;;;;;;;;;;;;;;38.99;32.29;101143.75;5074320;28;19917;-49
2023/07/11 08:12:03;;;;;;;;;;;;;;;39.16;32.64;101141.47;5074192;28;19971;-49
2023/07/11 08:14:29;;;;;;;;;;;;;;;39.39;32.01;101143.28;5074305;28;19913;-49
2023/07/11 08:16:54;;;;;;;;;;;;;;;39.14;32.35;101139.09;5078428;28;19942;-53
2023/07/11 08:19:20;;;;;;;;;;;;;;;40.08;31.51;101149.34;5074202;28;19931;-50
2023/07/11 08:21:46;;;;;;;;;;;;;;;39.99;31.96;101141.28;5074105;28;19921;-53
2023/07/11 08:24:12;;;;;;;;;;;;;;;38.94;32.54;101132.91;5074389;28;19916;-54
2023/07/11 08:26:38;;;;;;;;;;;;;;;40.27;30.35;101145.44;5080570;28;19942;-57
2023/07/11 08:29:03;;;;;;;;;;;;;;;41.22;29.87;101129.63;5089723;28;19917;-55
2023/07/11 08:31:29;;;;;;;;;;;;;;;40.67;29.70;101146.34;5073580;28;19920;-51
2023/07/11 08:33:54;;;;;;;;;;;;;;;39.67;30.12;101131.50;5073793;28;19995;-50
2023/07/11 08:36:20;;;;;;;;;;;;;;;39.74;29.55;101136.34;5078125;28;19975;-52
2023/07/11 08:38:46;;;;;;;;;;;;;;;40.83;28.87;101129.19;5075756;28;19916;-55
2023/07/11 08:41:14;;;;;;;;;;;;;;;38.51;31.30;101124.06;5077445;28;19921;-55
2023/07/11 08:43:40;;;;;;;;;;;;;;;40.64;29.35;101126.72;5078014;28;19988;-53
2023/07/11 08:46:07;;;;;;;;;;;;;;;41.99;27.98;101128.28;5078110;28;19928;-53
2023/07/11 08:48:35;;;;;;;;;;;;;;;42.23;27.22;101128.59;5087366;28;19912;-51
2023/07/11 08:51:01;;;;;;;;;;;;;;;41.05;28.46;101123.59;5079741;28;19913;-53
2023/07/11 08:53:37;;;;;;;;;;;;;;;41.67;27.90;101143.22;5077991;28;19946;-51
2023/07/11 08:56:12;;;;;;;;;;;;;;;40.35;28.59;101124.66;5079340;28;19975;-51
2023/07/11 08:58:40;;;;;;;;;;;;;;;40.10;29.31;101113.34;5080005;28;19940;-56
2023/07/11 09:01:13;;;;;;;;;;;;;;;40.22;29.43;101112.19;5077384;28;19956;-52
2023/07/11 09:03:42;;;;;;;;;;;;;;;40.20;29.94;101108.97;5077983;28;19923;-56
2023/07/11 09:06:12;;;;;;;;;;;;;;;39.75;30.13;101117.53;5079145;28;19916;-50
2023/07/11 09:08:42;;;;;;;;;;;;;;;40.34;29.77;101120.25;5080303;28;19988;-55
2023/07/11 09:11:19;;;;;;;;;;;;;;;40.90;29.23;101111.56;5077376;28;19913;-51
2023/07/11 09:13:54;;;;;;;;;;;;;;;41.69;28.36;101104.31;5077523;28;19917;-52
2023/07/11 09:16:20;;;;;;;;;;;;;;;41.21;28.17;101106.38;5078896;28;19980;-53
2023/07/11 09:19:01;;;;;;;;;;;;;;;39.50;29.57;101140.56;5091831;28;19939;-52
2023/07/11 09:21:46;;;;;;;;;;;;;;;40.03;29.91;101114.13;5084256;28;19921;-53
2023/07/11 09:24:31;;;;;;;;;;;;;;;40.57;29.09;101102.28;5077242;28;19952;-50
2023/07/11 09:27:01;;;;;;;;;;;;;;;39.93;29.74;101098.09;5080611;28;19942;-51
2023/07/11 09:29:27;;;;;;;;;;;;;;;39.82;30.42;101112.03;5077121;28;19944;-55
2023/07/11 09:31:56;;;;;;;;;;;;;;;44.37;26.26;101115.38;5077182;28;19955;-51
2023/07/11 09:34:32;;;;;;;;;;;;;;;43.06;27.11;101102.78;5077037;28;19928;-52
2023/07/11 09:36:59;;;;;;;;;;;;;;;44.64;25.26;101111.81;5077737;28;19955;-50
2023/07/11 09:39:39;;;;;;;;;;;;;;;43.21;26.09;101117.50;5084434;28;19960;-50
2023/07/11 09:42:12;;;;;;;;;;;;;;;43.52;26.01;101097.91;5064517;28;19925;-54
2023/07/11 09:44:37;;;;;;;;;;;;;;;44.19;25.45;101115.66;5077036;28;19943;-55
2023/07/11 09:47:15;;;;;;;;;;;;;;;43.08;27.04;101102.34;5082310;28;19916;-52
2023/07/11 09:49:41;;;;;;;;;;;;;;;43.53;26.56;101102.31;5076509;28;19943;-55
2023/07/11 09:52:09;;;;;;;;;;;;;;;43.02;26.44;101109.66;5076803;28;19917;-53
2023/07/11 09:54:45;;;;;;;;;;;;;;;42.11;26.76;101099.75;5076611;28;20004;-50
2023/07/11 09:57:11;;;;;;;;;;;;;;;42.90;26.48;101102.50;5081770;28;19927;-50
2023/07/11 09:59:38;;;;;;;;;;;;;;;44.57;24.98;101106.28;5076478;28;19916;-53
2023/07/11 10:02:04;;;;;;;;;;;;;;;49.89;20.62;101122.66;5076605;28;19920;-53
2023/07/11 10:04:31;;;;;;;;;;;;;;;46.05;23.29;101109.22;5076387;28;19913;-53
2023/07/11 10:06:56;;;;;;;;;;;;;;;46.08;22.62;101108.34;5079838;28;19916;-49
2023/07/11 10:09:32;;;;;;;;;;;;;;;46.71;22.42;101094.41;5090287;28;19955;-50
2023/07/11 10:11:59;;;;;;;;;;;;;;;46.37;22.52;101099.25;5075988;28;19944;-53
2023/07/11 10:14:39;;;;;;;;;;;;;;;46.52;22.74;101084.78;5075775;28;19983;-55
2023/07/11 10:17:25;;;;;;;;;;;;;;;47.24;21.81;101097.09;5076122;28;19917;-48
2023/07/11 10:19:55;;;;;;;;;;;;;;;46.74;22.68;101082.25;5067867;28;19928;-54
2023/07/11 10:22:21;;;;;;;;;;;;;;;45.15;23.71;101085.59;5075121;28;19948;-52
2023/07/11 10:24:47;;;;;;;;;;;;;;;45.24;23.16;101083.81;5076134;28;19917;-50
2023/07/11 10:27:14;;;;;;;;;;;;;;;47.87;21.39;101082.84;5075598;28;19916;-54
2023/07/11 10:29:45;;;;;;;;;;;;;;;46.05;23.03;101080.97;5082102;28;19980;-56
2023/07/11 10:32:24;;;;;;;;;;;;;;;47.04;22.17;101093.59;5076009;28;19913;-53
2023/07/11 10:34:54;;;;;;;;;;;;;;;47.33;22.16;101081.53;5075889;28;19943;-50
2023/07/11 10:37:32;;;;;;;;;;;;;;;49.17;20.98;101088.38;5075444;28;19929;-49
2023/07/11 10:40:11;;;;;;;;;;;;;;;47.16;22.75;101080.75;5072914;28;19988;-49
2023/07/11 10:42:37;;;;;;;;;;;;;;;46.99;23.07;101061.00;5068377;28;19924;-51
2023/07/11 10:45:13;;;;;;;;;;;;;;;44.25;25.15;101071.69;5075381;28;19917;-54
2023/07/11 10:47:41;;;;;;;;;;;;;;;45.48;23.97;101074.50;5075593;28;19924;-56
2023/07/11 10:50:25;;;;;;;;;;;;;;;44.99;24.03;101080.66;5075713;28;19917;-48
2023/07/11 10:52:53;;;;;;;;;;;;;;;44.09;24.34;101061.84;5075585;28;19913;-51
2023/07/11 10:55:20;;;;;;;;;;;;;;;44.11;24.82;101048.16;5075361;28;19963;-51
2023/07/11 10:57:47;;;;;;;;;;;;;;;44.17;24.61;101051.25;5077251;28;19972;-50
2023/07/11 11:00:13;;;;;;;;;;;;;;;45.88;23.48;101049.06;5075046;28;19944;-49
2023/07/11 11:02:58;;;;;;;;;;;;;;;47.94;22.21;101053.47;5074776;28;19917;-56
2023/07/11 11:05:42;;;;;;;;;;;;;;;46.78;22.92;101053.84;5075098;28;19917;-49
2023/07/11 11:08:18;;;;;;;;;;;;;;;47.17;22.15;101054.84;5067292;28;19917;-56
2023/07/11 11:11:03;;;;;;;;;;;;;;;45.24;23.58;101041.47;5077486;28;19917;-53
2023/07/11 11:13:33;;;;;;;;;;;;;;;44.62;24.67;101038.94;5074966;28;19955;-54
2023/07/11 11:16:06;;;;;;;;;;;;;;;44.14;25.00;101028.81;5074996;28;19996;-51
2023/07/11 11:18:31;;;;;;;;;;;;;;;47.13;22.14;101042.84;5080515;28;19920;-54
2023/07/11 11:21:12;;;;;;;;;;;;;;;46.04;23.12;101037.00;5074754;28;19927;-53
2023/07/11 11:23:54;;;;;;;;;;;;;;;47.28;22.19;101037.59;5074976;28;19920;-51
2023/07/11 11:26:34;;;;;;;;;;;;;;;46.64;23.37;101023.91;5074759;28;19946;-52
2023/07/11 11:29:14;;;;;;;;;;;;;;;47.78;21.95;101029.69;5096045;28;20261;-53
2023/07/11 11:31:54;;;;;;;;;;;;;;;46.49;22.89;101023.44;5074760;28;19917;-57
2023/07/11 11:34:27;;;;;;;;;;;;;;;45.30;23.91;101029.69;5074420;28;19921;-53
2023/07/11 11:37:01;;;;;;;;;;;;;;;45.23;24.14;101020.13;5074560;28;19923;-55
2023/07/11 11:39:53;;;;;;;;;;;;;;;45.85;24.04;101027.34;5085708;28;20315;-54
2023/07/11 11:42:23;;;;;;;;;;;;;;;45.48;23.96;101018.84;5068203;28;19947;-52
2023/07/11 11:44:52;;;;;;;;;;;;;;;45.80;23.71;101014.53;5074807;28;19924;-55
2023/07/11 11:47:19;;;;;;;;;;;;;;;48.59;21.66;101017.38;5074628;28;19916;-53
2023/07/11 11:49:45;;;;;;;;;;;;;;;47.15;22.37;101026.19;5075213;28;19916;-49
2023/07/11 11:52:11;;;;;;;;;;;;;;;46.46;23.13;101018.69;5073708;28;19916;-50
2023/07/11 11:54:41;;;;;;;;;;;;;;;44.80;23.93;101030.16;5074742;28;19923;-50
2023/07/11 11:57:15;;;;;;;;;;;;;;;46.38;22.51;101015.25;5074711;28;19917;-50
2023/07/11 11:59:40;;;;;;;;;;;;;;;47.64;21.79;101032.91;5080147;28;19944;-57
2023/07/11 12:02:11;;;;;;;;;;;;;;;45.89;23.05;101021.59;5074591;28;19916;-49
2023/07/11 12:04:42;;;;;;;;;;;;;;;46.85;22.69;101005.59;5074591;28;19980;-52
2023/07/11 12:07:10;;;;;;;;;;;;;;;46.89;22.89;101016.81;5074180;28;19916;-53
2023/07/11 12:09:44;;;;;;;;;;;;;;;46.75;23.22;101001.00;5080386;28;19940;-53
2023/07/11 12:12:11;;;;;;;;;;;;;;;46.13;23.24;101002.53;5074565;28;19947;-50
2023/07/11 12:14:56;;;;;;;;;;;;;;;46.41;23.58;101011.53;5078564;28;19951;-55
2023/07/11 12:17:33;;;;;;;;;;;;;;;49.69;20.71;101011.41;5078493;28;19920;-54
2023/07/11 12:20:08;;;;;;;;;;;;;;;50.21;20.18;101006.06;5094623;28;19921;-49
2023/07/11 12:22:34;;;;;;;;;;;;;;;48.33;21.07;101005.25;5070535;28;19921;-52
2023/07/11 12:25:02;;;;;;;;;;;;;;;47.71;21.83;101029.88;5078563;28;19945;-54
2023/07/11 12:27:28;;;;;;;;;;;;;;;47.81;22.32;100993.97;5078591;28;20015;-54
2023/07/11 12:29:54;;;;;;;;;;;;;;;47.06;21.47;101006.22;5087859;28;19924;-52
2023/07/11 12:32:33;;;;;;;;;;;;;;;48.63;20.82;101000.25;5078326;28;20008;-50
2023/07/11 12:35:04;;;;;;;;;;;;;;;51.59;19.41;101006.53;5072974;28;19940;-52
2023/07/11 12:37:36;;;;;;;;;;;;;;;50.17;19.73;101008.28;5078109;28;19980;-57